Albia, Iowa
Current Conditions -  °F | °C
As of 2:53 PM on Sunday 21 Dec 2014 (Local Time) from KOTM Reporting Station
Overcast Overcast  
Wind Chill: 35°   Ceiling: 1700
Heat Index: 42°   Visibility: 10mi
Dew Point: 37°   Wind: 14mph
Humidity: 82%   Direction: 160°SSE
Pressure: 29.88"   Gusts: NA
Location:  41.03°N, 92.81°W
Report Text: KOTM 212053Z AUTO 16012KT 10SM BKN017 OVC023 06/03 A2988 RMK AO2 SLP124 T00560028 56026
Loading
Personal Weather Stations






























Interactive Weather Map New forecast layout! Learn more

10-Day Weather Forecast

Advertisements
Track Severe Weather on mobile